Time;durP1;ratioP1;P1;durP2;ratioP2;P2;SDS_P1;SDS_P2;PMS_P1;PMS_P2;Temp;Humidity;BMP_temperature;BMP_pressure;BME280_temperature;BME280_humidity;BME280_pressure;Samples;Min_cycle;Max_cycle;Signal;HPM_P1;HPM_P2
2023/07/04 00:02:13;;;;;;;0.60;0.60;;;;;15.50;95915.00;;;;5033128;28;20217;-56
2023/07/04 00:04:43;;;;;;;0.70;0.70;;;;;15.50;95911.00;;;;5033287;28;20200;-55
2023/07/04 00:07:11;;;;;;;0.53;0.53;;;;;15.40;95897.00;;;;5033501;28;20177;-56
2023/07/04 00:09:38;;;;;;;0.60;0.60;;;;;15.40;95893.00;;;;5033186;28;20184;-56
2023/07/04 00:12:08;;;;;;;1.03;1.03;;;;;15.40;95900.00;;;;5031766;28;20256;-56
2023/07/04 00:14:35;;;;;;;0.50;0.50;;;;;15.40;95904.00;;;;5033086;28;20198;-55
2023/07/04 00:17:03;;;;;;;0.60;0.60;;;;;15.40;95896.00;;;;5033095;28;20197;-55
2023/07/04 00:19:32;;;;;;;0.50;0.50;;;;;15.40;95903.00;;;;5031673;28;20228;-55
2023/07/04 00:22:00;;;;;;;0.57;0.57;;;;;15.30;95898.00;;;;5032981;28;20706;-55
2023/07/04 00:24:27;;;;;;;0.60;0.60;;;;;15.40;95895.00;;;;5033232;28;20204;-55
2023/07/04 00:26:56;;;;;;;0.60;0.60;;;;;15.30;95894.00;;;;5032962;28;20200;-56
2023/07/04 00:29:23;;;;;;;0.80;0.80;;;;;15.30;95904.00;;;;5032039;28;20201;-56
2023/07/04 00:31:51;;;;;;;0.60;0.60;;;;;15.30;95903.00;;;;5032859;28;20211;-57
2023/07/04 00:34:20;;;;;;;0.60;0.60;;;;;15.20;95893.00;;;;5031526;28;20729;-55
2023/07/04 00:36:50;;;;;;;0.90;0.90;;;;;15.20;95905.00;;;;5032764;28;20192;-55
2023/07/04 00:39:18;;;;;;;0.50;0.50;;;;;15.10;95910.00;;;;5031339;28;20587;-55
2023/07/04 00:41:46;;;;;;;0.70;0.70;;;;;15.00;95904.00;;;;5032713;28;20220;-55
2023/07/04 00:44:23;;;;;;;1.27;1.00;;;;;15.00;95913.00;;;;5032828;28;20189;-56
2023/07/04 00:47:01;;;;;;;0.50;0.50;;;;;15.00;95912.00;;;;5032889;28;20185;-56
2023/07/04 00:49:42;;;;;;;0.70;0.70;;;;;15.00;95911.00;;;;5032789;28;20247;-55
2023/07/04 00:52:14;;;;;;;0.60;0.60;;;;;15.00;95909.00;;;;5032969;28;20216;-55
2023/07/04 00:54:44;;;;;;;1.03;1.03;;;;;15.00;95909.00;;;;5032774;28;20189;-55
2023/07/04 00:57:14;;;;;;;0.70;0.70;;;;;15.10;95910.00;;;;5033024;28;20217;-55
2023/07/04 00:59:44;;;;;;;0.60;0.60;;;;;15.10;95916.00;;;;5032577;28;20714;-55
2023/07/04 01:02:12;;;;;;;0.63;0.63;;;;;15.20;95908.00;;;;5032569;28;20212;-56
2023/07/04 01:04:41;;;;;;;0.80;0.80;;;;;15.10;95924.00;;;;5032717;28;20307;-56
2023/07/04 01:07:22;;;;;;;0.67;0.67;;;;;15.20;95920.00;;;;5031820;28;20556;-55
2023/07/04 01:09:55;;;;;;;1.00;1.00;;;;;15.10;95920.00;;;;5033109;28;20185;-56
2023/07/04 01:12:29;;;;;;;0.90;0.90;;;;;15.10;95916.00;;;;5032417;28;20216;-55
2023/07/04 01:14:57;;;;;;;0.50;0.50;;;;;15.00;95918.00;;;;5033056;28;20185;-55
2023/07/04 01:17:24;;;;;;;0.97;0.97;;;;;14.80;95924.00;;;;5032769;28;20193;-56
2023/07/04 01:19:52;;;;;;;0.80;0.80;;;;;15.00;95925.00;;;;5032647;28;20213;-56
2023/07/04 01:22:29;;;;;;;1.03;1.03;;;;;14.90;95922.00;;;;5032348;28;20656;-55
2023/07/04 01:25:08;;;;;;;0.70;0.70;;;;;14.90;95934.00;;;;5032722;28;20189;-55
2023/07/04 01:27:37;;;;;;;0.90;0.90;;;;;14.90;95924.00;;;;5031185;28;20200;-56
2023/07/04 01:30:06;;;;;;;1.20;1.20;;;;;14.90;95921.00;;;;5032225;28;20196;-56
2023/07/04 01:32:35;;;;;;;0.80;0.80;;;;;14.70;95925.00;;;;5032653;28;20549;-55
2023/07/04 01:35:03;;;;;;;0.60;0.60;;;;;14.70;95913.00;;;;5032284;28;20271;-55
2023/07/04 01:37:31;;;;;;;0.70;0.70;;;;;14.80;95923.00;;;;5030937;28;20204;-56
2023/07/04 01:39:59;;;;;;;8.00;1.23;;;;;14.70;95915.00;;;;5033245;28;20263;-56
2023/07/04 01:42:31;;;;;;;1.10;1.10;;;;;14.80;95926.00;;;;5036420;28;20196;-55
2023/07/04 01:45:03;;;;;;;0.60;0.60;;;;;14.80;95917.00;;;;5035872;28;20177;-55
2023/07/04 01:47:33;;;;;;;1.17;1.17;;;;;14.70;95920.00;;;;5035865;28;20205;-57
2023/07/04 01:50:02;;;;;;;0.57;0.57;;;;;14.70;95915.00;;;;5036145;28;20648;-56
2023/07/04 01:52:32;;;;;;;0.80;0.80;;;;;14.70;95914.00;;;;5036156;28;20197;-55
2023/07/04 01:55:00;;;;;;;1.20;1.20;;;;;14.60;95915.00;;;;5035958;28;20192;-56
2023/07/04 01:57:27;;;;;;;1.20;1.17;;;;;14.70;95916.00;;;;5035576;28;20200;-55
2023/07/04 01:59:55;;;;;;;0.70;0.70;;;;;14.50;95913.00;;;;5035918;28;20401;-56
2023/07/04 02:02:24;;;;;;;0.50;0.50;;;;;14.70;95906.00;;;;5035411;28;20227;-55
2023/07/04 02:04:51;;;;;;;0.83;0.83;;;;;14.60;95902.00;;;;5035684;28;20656;-55
2023/07/04 02:07:19;;;;;;;0.77;0.77;;;;;14.60;95910.00;;;;5035644;28;20560;-56
2023/07/04 02:09:46;;;;;;;0.70;0.70;;;;;14.60;95894.00;;;;5035758;28;20563;-56
2023/07/04 02:12:14;;;;;;;0.53;0.53;;;;;14.60;95898.00;;;;5035342;28;20608;-56
2023/07/04 02:14:41;;;;;;;0.70;0.70;;;;;14.60;95902.00;;;;5035536;28;20204;-56
2023/07/04 02:17:09;;;;;;;0.90;0.90;;;;;14.70;95909.00;;;;5035271;28;20215;-55
2023/07/04 02:19:37;;;;;;;0.70;0.70;;;;;14.70;95892.00;;;;5035592;28;20216;-56
2023/07/04 02:22:05;;;;;;;0.93;0.93;;;;;14.60;95900.00;;;;5035067;28;20213;-56
2023/07/04 02:24:33;;;;;;;0.63;0.63;;;;;14.40;95905.00;;;;5035044;28;20196;-55
2023/07/04 02:27:00;;;;;;;0.60;0.60;;;;;14.40;95897.00;;;;5035094;28;20197;-55
2023/07/04 02:29:28;;;;;;;0.80;0.80;;;;;14.40;95897.00;;;;5035253;28;20200;-56
2023/07/04 02:31:55;;;;;;;0.50;0.50;;;;;14.50;95898.00;;;;5034890;28;20213;-55
2023/07/04 02:34:23;;;;;;;0.90;0.90;;;;;14.60;95900.00;;;;5035132;28;20215;-55
2023/07/04 02:36:51;;;;;;;0.70;0.70;;;;;14.70;95901.00;;;;5035095;28;20553;-56
2023/07/04 02:39:19;;;;;;;0.70;0.70;;;;;14.70;95901.00;;;;5034966;28;20624;-55
2023/07/04 02:41:46;;;;;;;0.80;0.80;;;;;14.90;95903.00;;;;5034936;28;20278;-56
2023/07/04 02:44:14;;;;;;;0.50;0.50;;;;;15.00;95903.00;;;;5034753;28;20193;-56
2023/07/04 02:46:41;;;;;;;0.50;0.50;;;;;15.00;95905.00;;;;5034722;28;20219;-56
2023/07/04 02:49:08;;;;;;;0.50;0.50;;;;;15.10;95903.00;;;;5034983;28;20528;-55
2023/07/04 02:51:36;;;;;;;0.50;0.50;;;;;15.10;95907.00;;;;5034030;28;20274;-56
2023/07/04 02:54:05;;;;;;;0.67;0.67;;;;;15.10;95910.00;;;;5035123;28;20197;-59
2023/07/04 02:56:33;;;;;;;0.57;0.57;;;;;15.00;95910.00;;;;5034493;28;20200;-55
2023/07/04 02:59:00;;;;;;;0.60;0.60;;;;;15.00;95913.00;;;;5034774;28;20219;-56
2023/07/04 03:01:27;;;;;;;0.90;0.90;;;;;15.00;95897.00;;;;5034221;28;20216;-56
2023/07/04 03:03:55;;;;;;;0.70;0.70;;;;;14.90;95904.00;;;;5034428;28;20196;-55
2023/07/04 03:06:22;;;;;;;0.50;0.50;;;;;14.90;95899.00;;;;5034810;28;20671;-56
2023/07/04 03:08:50;;;;;;;0.63;0.63;;;;;14.80;95908.00;;;;5034456;28;20533;-55
2023/07/04 03:11:19;;;;;;;1.00;1.00;;;;;14.90;95908.00;;;;5034266;28;20295;-55
2023/07/04 03:13:46;;;;;;;0.60;0.60;;;;;14.90;95910.00;;;;5034234;28;20189;-55
2023/07/04 03:16:13;;;;;;;0.93;0.93;;;;;14.90;95912.00;;;;5034111;28;20198;-55
2023/07/04 03:18:41;;;;;;;0.67;0.67;;;;;15.00;95917.00;;;;5034142;28;20200;-56
2023/07/04 03:21:09;;;;;;;0.80;0.80;;;;;15.00;95925.00;;;;5034069;28;20229;-55
2023/07/04 03:23:36;;;;;;;0.70;0.70;;;;;15.00;95920.00;;;;5034028;28;20197;-55
2023/07/04 03:26:04;;;;;;;0.60;0.60;;;;;15.00;95921.00;;;;5034004;28;20660;-56
2023/07/04 03:28:33;;;;;;;0.70;0.70;;;;;15.00;95924.00;;;;5034210;28;20710;-56
2023/07/04 03:31:00;;;;;;;0.90;0.90;;;;;14.90;95925.00;;;;5034414;28;20351;-56
2023/07/04 03:33:27;;;;;;;1.00;1.00;;;;;15.00;95919.00;;;;5033913;28;20193;-55
2023/07/04 03:35:55;;;;;;;0.60;0.60;;;;;15.00;95926.00;;;;5033793;28;20200;-55
2023/07/04 03:38:22;;;;;;;1.13;1.13;;;;;15.00;95923.00;;;;5033660;28;20193;-55
2023/07/04 03:40:50;;;;;;;0.63;0.63;;;;;15.10;95931.00;;;;5033665;28;20223;-56
2023/07/04 03:43:17;;;;;;;0.73;0.73;;;;;15.10;95931.00;;;;5033608;28;20548;-59
2023/07/04 03:45:47;;;;;;;0.60;0.60;;;;;15.10;95932.00;;;;5033649;28;20197;-55
2023/07/04 03:48:15;;;;;;;1.23;1.00;;;;;15.20;95925.00;;;;5033613;28;20200;-55
2023/07/04 03:50:42;;;;;;;0.90;0.90;;;;;15.30;95928.00;;;;5033508;28;20208;-55
2023/07/04 03:53:10;;;;;;;0.70;0.70;;;;;15.20;95930.00;;;;5034278;28;20196;-55
2023/07/04 03:55:37;;;;;;;1.03;0.90;;;;;15.30;95936.00;;;;5033686;28;20224;-55
2023/07/04 03:58:05;;;;;;;2.00;1.27;;;;;15.30;95933.00;;;;5033688;28;20192;-55
2023/07/04 04:00:32;;;;;;;0.70;0.70;;;;;15.40;95934.00;;;;5033233;28;20236;-56
2023/07/04 04:03:01;;;;;;;0.70;0.70;;;;;15.30;95929.00;;;;5033447;28;20533;-55
2023/07/04 04:05:29;;;;;;;0.40;0.40;;;;;15.30;95926.00;;;;5033304;28;20668;-56
2023/07/04 04:07:57;;;;;;;1.47;1.37;;;;;15.20;95924.00;;;;5033580;28;20204;-56
2023/07/04 04:10:24;;;;;;;0.80;0.80;;;;;15.30;95926.00;;;;5033150;28;20286;-55
2023/07/04 04:12:52;;;;;;;0.77;0.77;;;;;15.30;95923.00;;;;5033438;28;20552;-56
2023/07/04 04:15:19;;;;;;;0.60;0.60;;;;;15.30;95929.00;;;;5033417;28;20215;-56
2023/07/04 04:17:47;;;;;;;0.87;0.87;;;;;15.30;95923.00;;;;5033184;28;20208;-56
2023/07/04 04:20:16;;;;;;;0.80;0.80;;;;;15.30;95923.00;;;;5031721;28;20243;-56
2023/07/04 04:22:46;;;;;;;0.50;0.50;;;;;15.40;95916.00;;;;5033063;28;20197;-56
2023/07/04 04:25:14;;;;;;;0.70;0.70;;;;;15.50;95925.00;;;;5033001;28;20199;-55
2023/07/04 04:27:42;;;;;;;0.70;0.70;;;;;15.50;95925.00;;;;5032921;28;20652;-56
2023/07/04 04:30:11;;;;;;;0.60;0.60;;;;;15.50;95924.00;;;;5032820;28;20193;-56
2023/07/04 04:32:39;;;;;;;0.70;0.70;;;;;15.60;95919.00;;;;5033128;28;20554;-56
2023/07/04 04:35:09;;;;;;;2.00;0.87;;;;;15.50;95922.00;;;;5033161;28;20717;-56
2023/07/04 04:37:38;;;;;;;0.53;0.53;;;;;15.70;95918.00;;;;5032703;28;20243;-56
2023/07/04 04:40:06;;;;;;;0.70;0.70;;;;;15.80;95923.00;;;;5032734;28;20208;-55
2023/07/04 04:42:34;;;;;;;0.60;0.60;;;;;15.80;95927.00;;;;5033066;28;20631;-56
2023/07/04 04:45:02;;;;;;;0.87;0.87;;;;;15.90;95923.00;;;;5033422;28;20201;-55
2023/07/04 04:47:33;;;;;;;0.70;0.70;;;;;16.00;95917.00;;;;5033973;28;20566;-55
2023/07/04 04:50:01;;;;;;;0.97;0.93;;;;;16.10;95932.00;;;;5033023;28;20187;-56
2023/07/04 04:52:30;;;;;;;0.80;0.80;;;;;16.10;95933.00;;;;5032699;28;20193;-55
2023/07/04 04:55:00;;;;;;;1.00;1.00;;;;;16.10;95930.00;;;;5032922;28;20223;-56
2023/07/04 04:57:29;;;;;;;0.50;0.50;;;;;16.30;95933.00;;;;5033044;28;20625;-56
2023/07/04 04:59:59;;;;;;;1.30;1.30;;;;;16.30;95936.00;;;;5031286;28;20196;-56
2023/07/04 05:02:26;;;;;;;0.80;0.80;;;;;16.30;95943.00;;;;5032500;28;20575;-55
2023/07/04 05:04:54;;;;;;;0.60;0.60;;;;;16.30;95945.00;;;;5032880;28;20204;-57
2023/07/04 05:07:23;;;;;;;0.60;0.60;;;;;16.30;95940.00;;;;5032521;28;20197;-56
2023/07/04 05:09:53;;;;;;;3.43;2.00;;;;;16.40;95946.00;;;;5032606;28;20193;-57
2023/07/04 05:12:22;;;;;;;1.00;1.00;;;;;16.40;95944.00;;;;5032453;28;20687;-56
2023/07/04 05:14:50;;;;;;;0.67;0.67;;;;;16.50;95950.00;;;;5033701;28;20575;-56
2023/07/04 05:17:18;;;;;;;1.90;1.10;;;;;16.50;95934.00;;;;5036816;28;20196;-55
2023/07/04 05:19:49;;;;;;;0.87;0.87;;;;;16.50;95939.00;;;;5036293;28;20208;-55
2023/07/04 05:22:16;;;;;;;0.60;0.60;;;;;16.60;95947.00;;;;5034901;28;20723;-55
2023/07/04 05:24:44;;;;;;;0.70;0.70;;;;;16.60;95945.00;;;;5036088;28;20224;-55
2023/07/04 05:27:11;;;;;;;0.70;0.70;;;;;16.70;95947.00;;;;5036421;28;20193;-55
2023/07/04 05:29:40;;;;;;;1.20;1.20;;;;;16.60;95946.00;;;;5036094;28;20196;-56
2023/07/04 05:32:08;;;;;;;0.60;0.60;;;;;16.60;95946.00;;;;5036046;28;20208;-55
2023/07/04 05:34:35;;;;;;;0.50;0.50;;;;;16.40;95945.00;;;;5036274;28;20196;-56
2023/07/04 05:37:03;;;;;;;1.00;1.00;;;;;16.40;95953.00;;;;5036167;28;20193;-55
2023/07/04 05:39:31;;;;;;;1.00;1.00;;;;;16.60;95948.00;;;;5036116;28;20192;-56
2023/07/04 05:41:58;;;;;;;1.57;1.47;;;;;16.60;95949.00;;;;5035732;28;20220;-55
2023/07/04 05:44:26;;;;;;;0.90;0.90;;;;;16.70;95952.00;;;;5035909;28;20205;-55
2023/07/04 05:46:55;;;;;;;0.90;0.90;;;;;16.80;95952.00;;;;5036649;28;20197;-55
2023/07/04 05:49:23;;;;;;;0.70;0.70;;;;;16.90;95950.00;;;;5036042;28;20603;-55
2023/07/04 05:51:50;;;;;;;0.87;0.87;;;;;16.70;95953.00;;;;5035725;28;20219;-56
2023/07/04 05:54:18;;;;;;;2.20;1.77;;;;;16.80;95954.00;;;;5034443;28;20205;-55
2023/07/04 05:56:51;;;;;;;0.73;0.73;;;;;16.90;95959.00;;;;5035742;28;20295;-56
2023/07/04 05:59:19;;;;;;;0.60;0.60;;;;;17.00;95956.00;;;;5036112;28;20613;-55
2023/07/04 06:01:47;;;;;;;0.97;0.97;;;;;17.00;95955.00;;;;5035356;28;20221;-56
2023/07/04 06:04:16;;;;;;;1.07;1.07;;;;;17.10;95962.00;;;;5034244;28;20196;-56
2023/07/04 06:06:45;;;;;;;1.40;1.30;;;;;17.10;95955.00;;;;5035520;28;20189;-56
2023/07/04 06:09:15;;;;;;;0.87;0.87;;;;;17.00;95960.00;;;;5035420;28;20276;-56
2023/07/04 06:11:45;;;;;;;0.50;0.50;;;;;17.10;95963.00;;;;5036031;28;20224;-55
2023/07/04 06:14:15;;;;;;;0.57;0.57;;;;;17.20;95951.00;;;;5035660;28;20216;-56
2023/07/04 06:16:43;;;;;;;1.10;1.07;;;;;17.20;95957.00;;;;5035225;28;20177;-55
2023/07/04 06:19:10;;;;;;;0.87;0.87;;;;;17.50;95952.00;;;;5035122;28;20280;-58
2023/07/04 06:21:39;;;;;;;16.13;1.27;;;;;17.60;95954.00;;;;5035090;28;20587;-56
2023/07/04 06:24:07;;;;;;;0.93;0.93;;;;;17.50;95953.00;;;;5035150;28;20562;-56
2023/07/04 06:26:35;;;;;;;0.70;0.70;;;;;17.60;95960.00;;;;5035156;28;20204;-56
2023/07/04 06:29:02;;;;;;;0.80;0.80;;;;;17.60;95959.00;;;;5035039;28;20199;-56
2023/07/04 06:31:30;;;;;;;0.70;0.70;;;;;17.80;95959.00;;;;5035048;28;20216;-56
2023/07/04 06:33:58;;;;;;;1.03;1.03;;;;;17.80;95966.00;;;;5034040;28;20204;-56
2023/07/04 06:36:26;;;;;;;1.00;1.00;;;;;17.70;95966.00;;;;5034877;28;20251;-56
2023/07/04 06:38:59;;;;;;;0.77;0.77;;;;;17.90;95959.00;;;;5034844;28;20275;-56
2023/07/04 06:41:26;;;;;;;1.00;1.00;;;;;18.00;95966.00;;;;5034658;28;20694;-56
2023/07/04 06:43:54;;;;;;;0.70;0.70;;;;;18.10;95941.00;;;;5034780;28;20267;-56
2023/07/04 06:46:22;;;;;;;0.57;0.57;;;;;18.20;95966.00;;;;5034939;28;20201;-56
2023/07/04 06:48:51;;;;;;;0.80;0.80;;;;;18.00;95971.00;;;;5034866;28;20211;-56
2023/07/04 06:51:20;;;;;;;0.90;0.90;;;;;17.80;95976.00;;;;5033199;28;20215;-55
2023/07/04 06:53:48;;;;;;;0.50;0.50;;;;;17.80;95976.00;;;;5034558;28;20203;-55
2023/07/04 06:56:19;;;;;;;0.47;0.47;;;;;17.90;95982.00;;;;5034439;28;20271;-56
2023/07/04 06:58:49;;;;;;;1.37;1.33;;;;;17.80;95982.00;;;;5034475;28;20181;-56
2023/07/04 07:01:18;;;;;;;0.90;0.90;;;;;18.00;95986.00;;;;5034473;28;20220;-56
2023/07/04 07:03:46;;;;;;;0.80;0.80;;;;;18.00;95987.00;;;;5034353;28;20215;-55
2023/07/04 07:06:14;;;;;;;0.40;0.40;;;;;17.90;95994.00;;;;5033106;28;20197;-56
2023/07/04 07:08:42;;;;;;;0.60;0.60;;;;;17.90;96000.00;;;;5034331;28;20540;-56
2023/07/04 07:11:11;;;;;;;0.43;0.43;;;;;17.40;96001.00;;;;5034301;28;20215;-56
2023/07/04 07:13:41;;;;;;;0.60;0.60;;;;;17.60;95994.00;;;;5034326;28;20196;-56
2023/07/04 07:16:11;;;;;;;1.03;1.03;;;;;17.80;95998.00;;;;5034356;28;20197;-56
2023/07/04 07:18:40;;;;;;;0.93;0.93;;;;;17.90;95993.00;;;;5034064;28;20652;-56
2023/07/04 07:21:09;;;;;;;0.67;0.67;;;;;18.00;95994.00;;;;5034007;28;20220;-56
2023/07/04 07:23:38;;;;;;;0.80;0.80;;;;;18.20;95993.00;;;;5033984;28;20197;-56
2023/07/04 07:26:08;;;;;;;0.87;0.87;;;;;18.50;95992.00;;;;5034236;28;20577;-56
2023/07/04 07:28:38;;;;;;;1.30;0.93;;;;;18.50;95987.00;;;;5033976;28;20204;-56
2023/07/04 07:31:09;;;;;;;1.07;1.07;;;;;18.30;95995.00;;;;5034083;28;20572;-57
2023/07/04 07:33:39;;;;;;;1.67;1.17;;;;;18.70;95996.00;;;;5034046;28;20188;-56
2023/07/04 07:36:13;;;;;;;0.60;0.60;;;;;18.60;95993.00;;;;5034010;28;20197;-57
2023/07/04 07:38:41;;;;;;;0.73;0.73;;;;;19.00;95996.00;;;;5033239;28;20660;-55
2023/07/04 07:41:08;;;;;;;0.60;0.60;;;;;18.90;95990.00;;;;5033465;28;20223;-55
2023/07/04 07:43:38;;;;;;;0.80;0.80;;;;;19.00;95999.00;;;;5033893;28;20571;-55
2023/07/04 07:46:08;;;;;;;0.97;0.97;;;;;18.60;96000.00;;;;5033542;28;20602;-56
2023/07/04 07:48:36;;;;;;;0.57;0.57;;;;;18.50;96006.00;;;;5033558;28;20189;-55
2023/07/04 07:51:05;;;;;;;0.70;0.70;;;;;18.80;96008.00;;;;5032140;28;20266;-55
2023/07/04 07:53:32;;;;;;;0.70;0.70;;;;;19.40;95998.00;;;;5033527;28;20200;-55
2023/07/04 07:56:00;;;;;;;0.90;0.90;;;;;19.30;96002.00;;;;5033568;28;20192;-56
2023/07/04 07:58:27;;;;;;;0.67;0.67;;;;;19.40;95999.00;;;;5033634;28;20272;-55
2023/07/04 08:00:54;;;;;;;0.80;0.80;;;;;19.70;95988.00;;;;5033468;28;20603;-57
2023/07/04 08:03:23;;;;;;;0.60;0.60;;;;;19.80;95987.00;;;;5059927;22;20231;-56
2023/07/04 08:05:51;;;;;;;2.70;1.53;;;;;19.60;95993.00;;;;5054121;28;20207;-56
2023/07/04 08:08:18;;;;;;;0.60;0.60;;;;;19.50;95988.00;;;;5053298;28;20201;-56
2023/07/04 08:10:45;;;;;;;4.57;0.87;;;;;19.60;95990.00;;;;5053187;28;20195;-56
2023/07/04 08:13:13;;;;;;;0.60;0.60;;;;;19.50;95992.00;;;;5053047;28;20690;-56
2023/07/04 08:15:40;;;;;;;0.60;0.60;;;;;19.30;95991.00;;;;5053128;28;20184;-56
2023/07/04 08:18:10;;;;;;;0.60;0.60;;;;;19.50;95998.00;;;;5053343;28;20250;-56
2023/07/04 08:20:39;;;;;;;0.80;0.80;;;;;19.80;95992.00;;;;5053312;28;20196;-56
2023/07/04 08:23:06;;;;;;;0.50;0.50;;;;;19.40;96002.00;;;;5053227;28;20224;-56
2023/07/04 08:25:39;;;;;;;0.80;0.80;;;;;19.50;96002.00;;;;5053061;28;20199;-59
2023/07/04 08:28:06;;;;;;;0.83;0.83;;;;;19.40;95992.00;;;;5053289;28;20250;-56
2023/07/04 08:30:33;;;;;;;1.20;1.20;;;;;19.60;95987.00;;;;5051662;28;20651;-56
2023/07/04 08:33:01;;;;;;;1.00;1.00;;;;;20.30;95988.00;;;;5053167;28;20223;-56
2023/07/04 08:35:28;;;;;;;4.90;1.20;;;;;20.70;95987.00;;;;5051638;28;20196;-56
2023/07/04 08:37:57;;;;;;;0.83;0.83;;;;;21.20;95979.00;;;;5051519;28;20655;-56
2023/07/04 08:40:24;;;;;;;0.67;0.67;;;;;21.40;95979.00;;;;5052873;28;20192;-56
2023/07/04 08:42:52;;;;;;;1.95;1.80;;;;;21.50;95980.00;;;;5052620;28;20322;-56
2023/07/04 08:45:26;;;;;;;1.67;0.90;;;;;21.60;95979.00;;;;5052782;28;20199;-56
2023/07/04 08:47:56;;;;;;;0.95;0.95;;;;;21.40;95993.00;;;;5052751;28;20176;-56
2023/07/04 08:50:28;;;;;;;1.10;1.10;;;;;21.30;95992.00;;;;5054647;28;20192;-56
2023/07/04 08:53:04;;;;;;;13.30;1.03;;;;;21.20;95998.00;;;;5057374;28;20222;-56
2023/07/04 08:55:36;;;;;;;1.23;1.23;;;;;20.80;95982.00;;;;5056857;28;20198;-56
2023/07/04 08:58:04;;;;;;;0.70;0.70;;;;;21.00;95981.00;;;;5056805;28;20597;-56
2023/07/04 09:00:35;;;;;;;1.35;1.05;;;;;21.60;95987.00;;;;5056969;28;20223;-56
2023/07/04 09:03:26;;;;;;;1.10;1.10;;;;;21.40;95983.00;;;;5056672;28;20269;-56
2023/07/04 09:06:05;;;;;;;0.90;0.90;;;;;20.40;95972.00;;;;5056901;28;20172;-56
2023/07/04 09:08:52;;;;;;;1.65;1.42;;;;;20.90;95964.00;;;;5055237;28;20654;-56
2023/07/04 09:11:20;;;;;;;1.00;1.00;;;;;21.60;95983.00;;;;5056560;28;20184;-56
2023/07/04 09:13:54;;;;;;;1.10;1.05;;;;;21.50;95988.00;;;;5056378;28;20231;-56
2023/07/04 09:16:27;;;;;;;1.10;1.10;;;;;21.70;95975.00;;;;5056452;28;20199;-56
2023/07/04 09:19:03;;;;;;;1.48;1.38;;;;;21.90;95974.00;;;;5055137;28;20290;-56
2023/07/04 09:21:32;;;;;;;0.95;0.95;;;;;22.00;95967.00;;;;5056574;28;20192;-56
2023/07/04 09:24:02;;;;;;;1.52;1.42;;;;;22.00;95971.00;;;;5056247;28;20282;-56
2023/07/04 09:26:37;;;;;;;1.13;1.13;;;;;22.00;95988.00;;;;5057009;28;20547;-56
2023/07/04 09:29:07;;;;;;;1.38;1.27;;;;;22.00;95987.00;;;;5056292;28;20230;-56
2023/07/04 09:31:37;;;;;;;0.82;0.82;;;;;21.80;95981.00;;;;5056107;28;20224;-56
2023/07/04 09:34:10;;;;;;;2.33;1.95;;;;;21.80;95974.00;;;;5056329;28;20211;-56
2023/07/04 09:36:40;;;;;;;0.80;0.80;;;;;21.50;95989.00;;;;5056236;28;20190;-56
2023/07/04 09:39:09;;;;;;;1.08;1.08;;;;;21.70;95987.00;;;;5056009;28;20242;-56
2023/07/04 09:41:40;;;;;;;1.95;1.20;;;;;20.90;95990.00;;;;5056168;28;20645;-56
2023/07/04 09:44:16;;;;;;;1.13;1.13;;;;;21.10;95987.00;;;;5056431;28;20181;-56
2023/07/04 09:46:49;;;;;;;1.40;1.30;;;;;21.00;95977.00;;;;5056169;28;20356;-56
2023/07/04 09:49:22;;;;;;;0.90;0.90;;;;;21.40;95989.00;;;;5055821;28;20188;-56
2023/07/04 09:51:59;;;;;;;0.85;0.85;;;;;21.20;95997.00;;;;5055701;28;20655;-56
2023/07/04 09:54:29;;;;;;;4.85;0.95;;;;;21.10;95994.00;;;;5055768;28;20180;-56
2023/07/04 09:56:57;;;;;;;0.98;0.95;;;;;21.40;95988.00;;;;5055624;28;20196;-56
2023/07/04 09:59:26;;;;;;;0.70;0.70;;;;;21.30;95989.00;;;;5056143;28;20195;-56
2023/07/04 10:01:59;;;;;;;0.77;0.77;;;;;21.40;95995.00;;;;5054747;28;20227;-56
2023/07/04 10:04:31;;;;;;;2.38;1.00;;;;;21.30;95991.00;;;;5054319;28;20199;-56
2023/07/04 10:07:00;;;;;;;1.33;1.23;;;;;21.10;95995.00;;;;5055549;28;20184;-56
2023/07/04 10:09:29;;;;;;;1.40;1.40;;;;;21.50;95996.00;;;;5055369;28;20297;-56
2023/07/04 10:12:10;;;;;;;5.10;1.50;;;;;20.90;95989.00;;;;5055283;28;20192;-55
2023/07/04 10:14:46;;;;;;;1.55;1.08;;;;;20.90;95991.00;;;;5055394;28;20523;-56
2023/07/04 10:17:18;;;;;;;1.17;1.08;;;;;21.50;95981.00;;;;5055787;28;20184;-56
2023/07/04 10:19:48;;;;;;;0.60;0.60;;;;;21.80;95965.00;;;;5055223;28;20234;-55
2023/07/04 10:22:24;;;;;;;3.13;1.30;;;;;21.80;95959.00;;;;5054996;28;20226;-56
2023/07/04 10:24:53;;;;;;;1.33;1.10;;;;;22.00;95962.00;;;;5055613;28;20187;-56
2023/07/04 10:27:26;;;;;;;1.00;1.00;;;;;22.30;95975.00;;;;5055276;28;20196;-56
2023/07/04 10:29:58;;;;;;;0.68;0.68;;;;;21.80;95982.00;;;;5055046;28;20184;-56
2023/07/04 10:32:26;;;;;;;1.38;1.30;;;;;21.90;95973.00;;;;5055131;28;20614;-56
2023/07/04 10:34:55;;;;;;;0.95;0.95;;;;;22.30;95966.00;;;;5054967;28;20205;-56
2023/07/04 10:37:26;;;;;;;0.70;0.70;;;;;22.30;95960.00;;;;5054808;28;20200;-56
2023/07/04 10:39:59;;;;;;;0.70;0.70;;;;;22.40;95964.00;;;;5054819;28;20204;-56
2023/07/04 10:42:32;;;;;;;2.03;1.58;;;;;22.20;95957.00;;;;5054958;28;20227;-55
2023/07/04 10:45:00;;;;;;;3.22;1.75;;;;;22.80;95961.00;;;;5054955;28;20181;-56
2023/07/04 10:47:32;;;;;;;0.55;0.55;;;;;22.90;95948.00;;;;5054686;28;20196;-56
2023/07/04 10:50:05;;;;;;;1.15;1.15;;;;;23.70;95944.00;;;;5054796;28;20188;-56
2023/07/04 10:52:35;;;;;;;0.65;0.65;;;;;23.80;95950.00;;;;5054593;28;20238;-56
2023/07/04 10:55:06;;;;;;;1.02;0.93;;;;;23.60;95951.00;;;;5054471;28;20196;-56
2023/07/04 10:57:36;;;;;;;0.93;0.93;;;;;23.50;95947.00;;;;5054522;28;20340;-56
2023/07/04 11:00:11;;;;;;;0.82;0.82;;;;;23.20;95970.00;;;;5055396;28;20203;-55
2023/07/04 11:02:43;;;;;;;0.85;0.85;;;;;22.90;95961.00;;;;5054528;28;20223;-56
2023/07/04 11:05:14;;;;;;;0.88;0.88;;;;;23.10;95959.00;;;;5054849;28;20536;-55
2023/07/04 11:07:44;;;;;;;1.05;1.02;;;;;23.50;95939.00;;;;5054297;28;20242;-56
2023/07/04 11:10:15;;;;;;;1.13;1.08;;;;;23.40;95948.00;;;;5054427;28;20601;-56
2023/07/04 11:12:43;;;;;;;4.85;1.52;;;;;23.30;95965.00;;;;5052059;28;20707;-56
2023/07/04 11:15:22;;;;;;;0.65;0.65;;;;;23.30;95963.00;;;;5054201;28;20200;-56
2023/07/04 11:17:51;;;;;;;1.58;1.48;;;;;23.30;95961.00;;;;5054362;28;20183;-56
2023/07/04 11:20:22;;;;;;;1.05;1.05;;;;;23.20;95958.00;;;;5054072;28;20535;-56
2023/07/04 11:23:00;;;;;;;1.00;1.00;;;;;23.40;95947.00;;;;5053967;28;20586;-56
2023/07/04 11:25:35;;;;;;;1.67;1.58;;;;;23.50;95934.00;;;;5054576;28;20180;-56
2023/07/04 11:28:25;;;;;;;0.90;0.90;;;;;22.90;95941.00;;;;5054208;28;20183;-55
2023/07/04 11:31:06;;;;;;;0.80;0.80;;;;;23.10;95970.00;;;;5054443;28;20185;-55
2023/07/04 11:33:44;;;;;;;0.80;0.80;;;;;22.70;95962.00;;;;5054011;28;20238;-55
2023/07/04 11:36:18;;;;;;;0.65;0.65;;;;;23.00;95974.00;;;;5053843;28;20183;-56
2023/07/04 11:38:53;;;;;;;0.50;0.50;;;;;22.90;95970.00;;;;5054237;28;20202;-56
2023/07/04 11:41:30;;;;;;;2.35;1.30;;;;;22.70;95977.00;;;;5053946;28;20198;-56
2023/07/04 11:44:00;;;;;;;2.10;1.27;;;;;22.80;95970.00;;;;5052933;28;20301;-56
2023/07/04 11:46:30;;;;;;;2.78;1.38;;;;;23.00;95944.00;;;;5053753;28;20183;-56
2023/07/04 11:48:58;;;;;;;0.98;0.95;;;;;23.30;95938.00;;;;5053391;28;20192;-56
2023/07/04 11:51:29;;;;;;;1.23;1.10;;;;;23.20;95957.00;;;;5053319;28;20212;-56
2023/07/04 11:53:59;;;;;;;2.20;0.98;;;;;23.80;95953.00;;;;5053381;28;20230;-56
2023/07/04 11:56:45;;;;;;;1.05;1.00;;;;;23.90;95956.00;;;;5053600;28;20196;-56
2023/07/04 11:59:39;;;;;;;0.60;0.60;;;;;23.50;95949.00;;;;5052793;28;20227;-56
2023/07/04 12:02:23;;;;;;;1.00;1.00;;;;;23.70;95929.00;;;;5053027;28;20262;-56
2023/07/04 12:04:51;;;;;;;1.10;1.00;;;;;23.90;95913.00;;;;5052381;28;20295;-56
2023/07/04 12:07:33;;;;;;;1.00;1.00;;;;;24.90;95947.00;;;;5051861;28;20620;-56
2023/07/04 12:10:10;;;;;;;1.00;1.00;;;;;25.00;95934.00;;;;5053443;28;20184;-56
2023/07/04 12:12:40;;;;;;;0.70;0.70;;;;;24.10;95940.00;;;;5053079;28;20701;-56
2023/07/04 12:15:09;;;;;;;1.20;0.98;;;;;23.50;95931.00;;;;5053550;28;20201;-56
2023/07/04 12:17:39;;;;;;;0.68;0.68;;;;;23.90;95937.00;;;;5053218;28;20220;-56
2023/07/04 12:20:09;;;;;;;0.95;0.95;;;;;24.20;95933.00;;;;5053009;28;20192;-56
2023/07/04 12:22:38;;;;;;;1.02;0.98;;;;;24.30;95937.00;;;;5052820;28;20725;-56
2023/07/04 12:25:10;;;;;;;2.53;1.05;;;;;24.60;95935.00;;;;5052764;28;20192;-56
2023/07/04 12:27:42;;;;;;;0.77;0.77;;;;;24.60;95918.00;;;;5052896;28;20196;-56
2023/07/04 12:30:12;;;;;;;0.75;0.75;;;;;24.90;95924.00;;;;5052848;28;20192;-57
2023/07/04 12:32:39;;;;;;;1.60;1.50;;;;;25.00;95920.00;;;;5052775;28;20293;-58